createdAt,value
2019-03-04T00:01:49.387Z,52.70
2019-03-04T00:04:50.884Z,52.80
2019-03-04T00:07:52.388Z,52.60
2019-03-04T00:10:53.816Z,52.60
2019-03-04T00:13:55.199Z,52.60
2019-03-04T00:16:56.619Z,52.60
2019-03-04T00:19:58.012Z,52.70
2019-03-04T00:22:59.454Z,52.70
2019-03-04T00:26:00.896Z,52.60
2019-03-04T00:29:02.280Z,52.70
2019-03-04T00:32:03.694Z,52.60
2019-03-04T00:35:05.310Z,52.60
2019-03-04T00:38:07.051Z,52.60
2019-03-04T00:41:08.481Z,52.60
2019-03-04T00:44:09.846Z,52.60
2019-03-04T00:47:11.279Z,52.60
2019-03-04T00:50:12.719Z,52.60
2019-03-04T00:53:14.226Z,52.60
2019-03-04T00:56:15.831Z,52.60
2019-03-04T00:59:17.229Z,52.70
2019-03-04T01:02:18.611Z,52.70
2019-03-04T01:05:20.157Z,52.70
2019-03-04T01:08:21.614Z,52.60
2019-03-04T01:11:22.986Z,52.70
2019-03-04T01:14:24.401Z,52.70
2019-03-04T01:17:25.808Z,52.70
2019-03-04T01:20:27.626Z,52.70
2019-03-04T01:23:29.357Z,52.60
2019-03-04T01:26:31.026Z,52.60
2019-03-04T01:29:32.400Z,52.60
2019-03-04T01:32:33.796Z,52.50
2019-03-04T01:35:35.226Z,52.50
2019-03-04T01:38:36.590Z,52.50
2019-03-04T01:41:39.642Z,52.40
2019-03-04T01:44:41.050Z,52.40
2019-03-04T01:47:42.517Z,52.30
2019-03-04T01:50:43.914Z,52.20
2019-03-04T01:53:45.291Z,52.30
2019-03-04T01:56:46.753Z,52.20
2019-03-04T01:59:48.175Z,52.10
2019-03-04T02:02:49.595Z,52.20
2019-03-04T02:05:51.063Z,52.10
2019-03-04T02:08:52.618Z,52.20
2019-03-04T02:11:53.968Z,52.10
2019-03-04T02:14:55.914Z,52.00
2019-03-04T02:17:57.347Z,52.00
2019-03-04T02:20:58.724Z,52.00
2019-03-04T02:24:25.435Z,52.00
2019-03-04T02:27:26.918Z,52.00
2019-03-04T02:30:29.077Z,51.90
2019-03-04T02:33:30.743Z,51.90
2019-03-04T02:36:32.406Z,51.90
2019-03-04T02:39:34.102Z,51.90
2019-03-04T02:42:35.584Z,51.90
2019-03-04T02:45:37.332Z,51.90
2019-03-04T02:48:38.797Z,51.90
2019-03-04T02:51:40.293Z,51.90
2019-03-04T02:54:41.770Z,51.90
2019-03-04T02:57:43.179Z,51.90
2019-03-04T03:00:44.787Z,51.90
2019-03-04T03:03:46.219Z,51.80
2019-03-04T03:06:47.596Z,51.80
2019-03-04T03:09:49.000Z,51.80
2019-03-04T03:12:50.534Z,51.70
2019-03-04T03:15:51.898Z,51.70
2019-03-04T03:18:53.340Z,51.70
2019-03-04T03:21:54.773Z,51.80
2019-03-04T03:24:56.144Z,51.80
2019-03-04T03:27:57.527Z,52.30
2019-03-04T03:30:58.875Z,51.70
2019-03-04T03:34:00.239Z,51.70
2019-03-04T03:37:01.694Z,51.60
2019-03-04T03:40:03.604Z,51.60
2019-03-04T03:43:05.054Z,51.60
2019-03-04T03:46:06.472Z,51.50
2019-03-04T03:49:07.835Z,51.60
2019-03-04T03:52:09.213Z,51.50
2019-03-04T03:55:10.773Z,51.40
2019-03-04T03:58:12.145Z,51.30
2019-03-04T04:01:13.598Z,51.30
2019-03-04T04:04:15.049Z,51.30
2019-03-04T04:07:16.423Z,51.30
2019-03-04T04:10:18.027Z,51.20
2019-03-04T04:13:19.519Z,51.10
2019-03-04T04:16:20.933Z,51.20
2019-03-04T04:19:22.310Z,51.20
2019-03-04T04:22:23.686Z,51.30
2019-03-04T04:25:25.061Z,51.20
2019-03-04T04:28:26.502Z,51.30
2019-03-04T04:31:28.104Z,51.20
2019-03-04T04:34:29.500Z,51.30
2019-03-04T04:37:31.006Z,51.30
2019-03-04T04:40:32.810Z,51.40
2019-03-04T04:43:34.208Z,51.30
2019-03-04T04:46:56.234Z,51.40
2019-03-04T04:49:57.802Z,51.50
2019-03-04T04:52:59.218Z,51.50
2019-03-04T04:56:00.610Z,51.50
2019-03-04T04:59:02.054Z,51.40
2019-03-04T05:02:03.507Z,51.50
2019-03-04T05:05:05.514Z,51.50
2019-03-04T05:08:06.984Z,51.90
2019-03-04T05:11:08.358Z,51.50
2019-03-04T05:14:09.755Z,51.90
2019-03-04T05:17:11.167Z,51.50
2019-03-04T05:20:18.762Z,51.40
2019-03-04T05:23:20.111Z,51.30
2019-03-04T05:26:21.491Z,51.40
2019-03-04T05:29:22.935Z,51.30
2019-03-04T05:32:25.228Z,51.30
2019-03-04T05:35:26.615Z,51.40
2019-03-04T05:38:28.054Z,51.40
2019-03-04T05:41:29.430Z,51.30
2019-03-04T05:44:30.825Z,51.40
2019-03-04T05:47:32.322Z,51.30
2019-03-04T05:50:33.772Z,51.40
2019-03-04T05:53:35.149Z,51.30
2019-03-04T05:56:36.583Z,51.20
2019-03-04T05:59:37.968Z,51.20
2019-03-04T06:02:39.373Z,51.20
2019-03-04T06:05:40.750Z,51.20
2019-03-04T06:08:42.197Z,51.20
2019-03-04T06:11:43.577Z,51.20
2019-03-04T06:14:44.963Z,51.30
2019-03-04T06:17:46.614Z,51.20
2019-03-04T06:20:48.679Z,51.20
2019-03-04T06:23:51.411Z,51.30
2019-03-04T06:26:52.894Z,51.30
2019-03-04T06:29:54.602Z,51.20
2019-03-04T06:32:56.136Z,51.30
2019-03-04T06:35:57.603Z,51.30
2019-03-04T06:38:59.004Z,51.30
2019-03-04T06:42:00.723Z,51.40
2019-03-04T06:45:02.114Z,51.40
2019-03-04T06:48:16.477Z,51.40
2019-03-04T06:51:36.661Z,51.40
2019-03-04T06:55:38.181Z,51.40
2019-03-04T06:58:44.744Z,51.40
2019-03-04T07:01:52.292Z,51.30
2019-03-04T07:05:46.185Z,51.30
2019-03-04T07:09:14.858Z,51.20
2019-03-04T07:12:16.372Z,51.20
2019-03-04T07:15:17.732Z,51.20
2019-03-04T07:18:19.194Z,51.20
2019-03-04T07:21:20.663Z,51.20
2019-03-04T07:24:22.087Z,51.30
2019-03-04T07:27:23.470Z,51.30
2019-03-04T07:30:27.399Z,51.30
2019-03-04T07:33:32.389Z,51.40
2019-03-04T07:36:35.729Z,51.30
2019-03-04T07:39:38.735Z,51.30
2019-03-04T07:42:43.284Z,51.30
2019-03-04T07:45:47.712Z,51.40
2019-03-04T07:48:49.173Z,51.30
2019-03-04T07:51:51.146Z,51.30
2019-03-04T07:54:52.661Z,51.30
2019-03-04T07:57:54.654Z,51.30
2019-03-04T08:00:56.554Z,51.30
2019-03-04T08:03:58.210Z,51.30
2019-03-04T08:07:54.941Z,51.20
2019-03-04T08:11:57.586Z,51.20
2019-03-04T08:14:59.278Z,51.10
2019-03-04T08:18:01.036Z,51.10
2019-03-04T08:21:02.947Z,50.90
2019-03-04T08:24:04.484Z,50.80
2019-03-04T08:27:07.798Z,50.60
2019-03-04T08:30:15.067Z,50.60
2019-03-04T08:33:16.487Z,50.60
2019-03-04T08:36:18.054Z,50.50
2019-03-04T08:39:19.581Z,50.50
2019-03-04T08:42:21.015Z,50.30
2019-03-04T08:45:22.950Z,50.20
2019-03-04T08:48:24.394Z,50.20
2019-03-04T08:51:25.970Z,50.00
2019-03-04T08:54:27.497Z,50.10
2019-03-04T08:57:28.891Z,49.90
2019-03-04T09:00:30.835Z,49.80
2019-03-04T09:03:32.282Z,49.90
2019-03-04T09:06:34.870Z,49.70
2019-03-04T09:09:36.328Z,49.60
2019-03-04T09:12:37.853Z,49.60
2019-03-04T09:15:39.339Z,49.40
2019-03-04T09:18:40.806Z,49.50
2019-03-04T09:21:42.327Z,49.50
2019-03-04T09:24:45.104Z,49.60
2019-03-04T09:27:46.714Z,49.50
2019-03-04T09:30:48.194Z,49.50
2019-03-04T09:33:49.823Z,49.50
2019-03-04T09:36:51.247Z,49.60
2019-03-04T09:39:52.671Z,49.60
2019-03-04T09:42:55.106Z,49.60
2019-03-04T09:45:57.087Z,49.60
2019-03-04T09:48:58.662Z,49.70
2019-03-04T09:52:00.069Z,49.70
2019-03-04T09:55:01.627Z,49.70
2019-03-04T09:58:03.106Z,49.70
2019-03-04T10:01:59.191Z,49.80
2019-03-04T10:06:03.722Z,49.80
2019-03-04T10:10:05.379Z,49.90
2019-03-04T10:14:03.044Z,49.90
2019-03-04T10:17:31.323Z,50.00
2019-03-04T10:21:51.692Z,50.00
2019-03-04T10:26:11.160Z,50.20
2019-03-04T10:30:12.896Z,50.20
2019-03-04T10:34:29.238Z,50.30
2019-03-04T10:38:04.631Z,50.00
2019-03-04T10:41:46.431Z,50.10
2019-03-04T10:45:32.583Z,50.00
2019-03-04T10:48:34.147Z,49.80
2019-03-04T10:51:35.766Z,49.70
2019-03-04T10:54:37.517Z,49.80
2019-03-04T10:57:39.215Z,49.90
2019-03-04T11:00:40.792Z,49.90
2019-03-04T11:03:42.309Z,49.90
2019-03-04T11:06:44.735Z,49.90
2019-03-04T11:09:46.148Z,50.00
2019-03-04T11:12:47.671Z,49.90
2019-03-04T11:15:49.506Z,49.70
2019-03-04T11:18:51.161Z,49.70
2019-03-04T11:21:52.733Z,49.70
2019-03-04T11:24:54.600Z,49.60
2019-03-04T11:27:56.294Z,49.50
2019-03-04T11:30:57.767Z,49.40
2019-03-04T11:33:59.284Z,49.60
2019-03-04T11:37:00.787Z,49.70
2019-03-04T11:40:07.380Z,49.50
2019-03-04T11:43:22.057Z,49.50
2019-03-04T11:46:25.056Z,49.40
2019-03-04T11:49:26.597Z,49.40
2019-03-04T11:52:28.211Z,49.40
2019-03-04T11:55:31.450Z,49.30
2019-03-04T11:58:32.980Z,49.20
2019-03-04T12:01:39.011Z,49.10
2019-03-04T12:04:40.533Z,49.00
2019-03-04T12:07:41.995Z,49.10
2019-03-04T12:10:43.467Z,49.00
2019-03-04T12:13:45.187Z,49.10
2019-03-04T12:16:46.806Z,48.90
2019-03-04T12:19:48.291Z,49.10
2019-03-04T12:22:49.955Z,49.40
2019-03-04T12:25:52.524Z,49.30
2019-03-04T12:28:54.297Z,49.20
2019-03-04T12:32:11.515Z,49.20
2019-03-04T12:35:15.179Z,49.30
2019-03-04T12:38:16.758Z,49.30
2019-03-04T12:41:18.569Z,49.30
2019-03-04T12:44:20.083Z,49.40
2019-03-04T12:47:21.695Z,49.40
2019-03-04T12:50:24.933Z,49.10
2019-03-04T12:53:26.409Z,49.20
2019-03-04T12:56:27.845Z,49.10
2019-03-04T12:59:29.322Z,48.40
2019-03-04T13:02:30.828Z,48.00
2019-03-04T13:05:32.283Z,47.50
2019-03-04T13:08:34.097Z,47.30
2019-03-04T13:11:35.599Z,47.20
2019-03-04T13:14:37.077Z,47.80
2019-03-04T13:17:39.687Z,47.00
2019-03-04T13:20:41.263Z,46.90
2019-03-04T13:23:42.812Z,46.90
2019-03-04T13:26:44.584Z,46.80
2019-03-04T13:29:46.206Z,46.70
2019-03-04T13:32:55.389Z,46.70
2019-03-04T13:35:57.571Z,46.50
2019-03-04T13:38:59.014Z,45.90
2019-03-04T13:42:00.595Z,45.80
2019-03-04T13:45:02.086Z,45.40
2019-03-04T13:48:03.628Z,43.00
2019-03-04T13:51:05.131Z,42.10
2019-03-04T13:54:06.991Z,42.70
2019-03-04T13:57:08.462Z,42.60
2019-03-04T14:00:15.712Z,42.70
2019-03-04T14:03:17.254Z,43.00
2019-03-04T14:06:18.782Z,43.10
2019-03-04T14:09:21.770Z,43.10
2019-03-04T14:12:23.493Z,43.20
2019-03-04T14:15:29.480Z,43.20
2019-03-04T14:18:31.045Z,43.10
2019-03-04T14:21:32.660Z,43.00
2019-03-04T14:24:34.839Z,42.90
2019-03-04T14:27:36.321Z,43.00
2019-03-04T14:30:37.758Z,43.00
2019-03-04T14:33:39.241Z,43.00
2019-03-04T14:36:40.762Z,43.00
2019-03-04T14:39:42.996Z,43.20
2019-03-04T14:42:44.462Z,43.30
2019-03-04T14:45:45.922Z,43.20
2019-03-04T14:48:48.949Z,43.20
2019-03-04T14:51:50.661Z,43.50
2019-03-04T14:54:52.140Z,43.40
2019-03-04T14:57:53.861Z,43.40
2019-03-04T15:00:55.551Z,43.40
2019-03-04T15:03:57.099Z,43.50
2019-03-04T15:06:58.652Z,44.30
2019-03-04T15:10:00.281Z,43.70
2019-03-04T15:13:02.163Z,44.00
2019-03-04T15:16:04.581Z,43.90
2019-03-04T15:19:06.120Z,44.30
2019-03-04T15:22:07.543Z,44.10
2019-03-04T15:25:12.465Z,44.60
2019-03-04T15:28:17.331Z,44.10
2019-03-04T15:31:18.816Z,44.70
2019-03-04T15:34:20.666Z,44.80
2019-03-04T15:37:22.249Z,44.70
2019-03-04T15:40:23.802Z,44.90
2019-03-04T15:43:25.326Z,44.90
2019-03-04T15:46:26.813Z,44.70
2019-03-04T15:49:28.801Z,45.20
2019-03-04T15:52:30.275Z,45.40
2019-03-04T15:55:31.800Z,45.20
2019-03-04T15:58:33.354Z,45.60
2019-03-04T16:01:35.192Z,45.80
2019-03-04T16:04:36.804Z,45.70
2019-03-04T16:07:38.315Z,45.80
2019-03-04T16:10:40.088Z,45.80
2019-03-04T16:13:42.103Z,45.80
2019-03-04T16:16:43.746Z,45.90
2019-03-04T16:19:45.181Z,45.90
2019-03-04T16:22:47.016Z,45.90
2019-03-04T16:25:48.582Z,45.90
2019-03-04T16:28:50.124Z,45.90
2019-03-04T16:31:51.761Z,45.90
2019-03-04T16:34:53.212Z,46.10
2019-03-04T16:37:54.655Z,46.80
2019-03-04T16:40:56.151Z,46.50
2019-03-04T16:43:58.026Z,46.60
2019-03-04T16:46:59.587Z,47.40
2019-03-04T16:50:01.021Z,48.40
2019-03-04T16:53:06.055Z,48.20
2019-03-04T16:56:07.495Z,48.20
2019-03-04T16:59:09.026Z,48.40
2019-03-04T17:02:10.500Z,48.40
2019-03-04T17:05:13.825Z,48.50
2019-03-04T17:08:15.378Z,48.40
2019-03-04T17:11:16.993Z,48.30
2019-03-04T17:14:18.903Z,48.20
2019-03-04T17:17:20.413Z,48.20
2019-03-04T17:20:22.137Z,48.10
2019-03-04T17:23:23.954Z,48.20
2019-03-04T17:26:25.526Z,48.20
2019-03-04T17:29:27.051Z,48.30
2019-03-04T17:32:28.652Z,48.40
2019-03-04T17:35:30.595Z,48.50
2019-03-04T17:38:32.152Z,48.60
2019-03-04T17:41:34.000Z,48.50
2019-03-04T17:44:35.854Z,48.60
2019-03-04T17:47:37.553Z,48.60
2019-03-04T17:50:40.749Z,48.60
2019-03-04T17:53:42.407Z,48.60
2019-03-04T17:56:43.943Z,48.70
2019-03-04T17:59:45.978Z,48.80
2019-03-04T18:02:47.448Z,48.90
2019-03-04T18:05:48.938Z,48.80
2019-03-04T18:08:50.451Z,49.00
2019-03-04T18:11:51.988Z,48.80
2019-03-04T18:14:53.435Z,49.10
2019-03-04T18:17:56.178Z,49.30
2019-03-04T18:20:57.741Z,49.40
2019-03-04T18:23:59.247Z,49.50
2019-03-04T18:27:21.026Z,49.60
2019-03-04T18:31:28.536Z,49.60
2019-03-04T18:35:10.986Z,49.70
2019-03-04T18:39:16.678Z,49.70
2019-03-04T18:43:10.170Z,49.70
2019-03-04T18:47:26.937Z,49.70
2019-03-04T18:50:28.735Z,49.70
2019-03-04T18:53:30.264Z,49.90
2019-03-04T18:56:31.855Z,49.90
2019-03-04T18:59:33.489Z,49.90
2019-03-04T19:02:35.071Z,50.00
2019-03-04T19:05:36.927Z,50.00
2019-03-04T19:08:39.320Z,50.00
2019-03-04T19:11:42.045Z,49.80
2019-03-04T19:14:44.057Z,49.90
2019-03-04T19:17:45.628Z,49.90
2019-03-04T19:20:47.920Z,50.00
2019-03-04T19:23:49.457Z,50.00
2019-03-04T19:26:52.032Z,50.00
2019-03-04T19:29:53.645Z,49.90
2019-03-04T19:32:55.329Z,50.00
2019-03-04T19:35:56.896Z,50.00
2019-03-04T19:38:58.489Z,50.10
2019-03-04T19:42:04.089Z,50.00
2019-03-04T19:45:05.538Z,49.90
2019-03-04T19:48:08.345Z,49.90
2019-03-04T19:51:09.958Z,50.00
2019-03-04T19:54:11.554Z,50.10
2019-03-04T19:57:13.414Z,50.00
2019-03-04T20:00:19.623Z,49.90
2019-03-04T20:03:21.765Z,49.90
2019-03-04T20:06:23.450Z,49.90
2019-03-04T20:09:25.901Z,49.90
2019-03-04T20:12:28.103Z,49.90
2019-03-04T20:15:29.891Z,49.90
2019-03-04T20:18:31.971Z,49.90
2019-03-04T20:21:34.623Z,49.80
2019-03-04T20:24:36.204Z,49.70
2019-03-04T20:27:38.800Z,50.20
2019-03-04T20:30:40.992Z,49.70
2019-03-04T20:33:45.012Z,49.70
2019-03-04T20:36:47.792Z,49.80
2019-03-04T20:39:49.681Z,49.70
2019-03-04T20:42:51.349Z,49.70
2019-03-04T20:45:52.991Z,49.70
2019-03-04T20:48:54.576Z,49.70
2019-03-04T20:51:56.178Z,49.70
2019-03-04T20:54:57.757Z,49.70
2019-03-04T20:57:59.425Z,49.80
2019-03-04T21:01:01.415Z,49.70
2019-03-04T21:04:03.940Z,49.70
2019-03-04T21:07:05.560Z,49.70
2019-03-04T21:10:08.541Z,49.60
2019-03-04T21:13:34.817Z,49.70
2019-03-04T21:16:28.155Z,49.70
2019-03-04T21:19:29.659Z,49.60
2019-03-04T21:22:31.181Z,49.70
2019-03-04T21:25:44.322Z,49.60
2019-03-04T21:29:30.323Z,49.60
2019-03-04T21:33:14.469Z,49.60
2019-03-04T21:36:42.401Z,49.60
2019-03-04T21:39:44.111Z,49.60
2019-03-04T21:42:59.184Z,49.60
2019-03-04T21:46:53.984Z,49.70
2019-03-04T21:49:57.169Z,49.60
2019-03-04T21:53:14.541Z,49.60
2019-03-04T21:56:56.947Z,49.60
2019-03-04T21:59:58.513Z,49.70
2019-03-04T22:03:20.213Z,49.90
2019-03-04T22:06:22.191Z,49.70
2019-03-04T22:09:23.814Z,49.60
2019-03-04T22:12:25.370Z,49.60
2019-03-04T22:15:28.334Z,49.50
2019-03-04T22:18:29.924Z,49.50
2019-03-04T22:21:31.793Z,49.50
2019-03-04T22:24:33.292Z,49.50
2019-03-04T22:27:34.939Z,49.50
2019-03-04T22:30:36.437Z,49.40
2019-03-04T22:33:37.968Z,49.50
2019-03-04T22:36:39.573Z,49.40
2019-03-04T22:39:41.062Z,49.40
2019-03-04T22:42:42.988Z,49.50
2019-03-04T22:45:44.510Z,49.50
2019-03-04T22:48:46.157Z,49.50
2019-03-04T22:51:47.622Z,49.40
2019-03-04T22:54:49.106Z,49.50
2019-03-04T22:57:51.026Z,49.50
2019-03-04T23:01:54.114Z,49.50
2019-03-04T23:05:18.035Z,49.60
2019-03-04T23:08:19.463Z,49.60
2019-03-04T23:11:26.551Z,49.50
2019-03-04T23:14:29.816Z,49.60
2019-03-04T23:17:31.316Z,49.70
2019-03-04T23:20:33.905Z,49.70
2019-03-04T23:23:35.290Z,49.70
2019-03-04T23:26:36.764Z,49.60
2019-03-04T23:29:38.168Z,49.70
2019-03-04T23:32:39.648Z,49.60
2019-03-04T23:35:41.079Z,49.70
2019-03-04T23:38:42.564Z,49.70
2019-03-04T23:41:44.017Z,49.70
2019-03-04T23:44:45.746Z,49.70
2019-03-04T23:47:47.140Z,49.70
2019-03-04T23:50:48.615Z,49.60
2019-03-04T23:53:50.094Z,49.80
2019-03-04T23:56:51.483Z,49.70
2019-03-04T23:59:53.074Z,49.70
